Chickering American River Reserve, California Weather observations

Data are for 10 minute period ending at time listed.
 Day   Time   Solar   Ave.   Ave.  Ave.  Vector  Max.   Baro.   Total    
  of    of     Rad.   Air    Rel.  Wind   Wind   Wind  Press.  Precip.   
Year   Day            Temp.  Hum.  Speed  Dir.   Gust                    
2026   (PST)  Kw/m2    F      %     mph   deg.    mph    mb.     in.     
-------------------------------------------------------------------------
 126   17:10   0.03   63.1    53    1.3    32     3.7   821.6    0.00 
 126   17:20   0.03   62.8    54    0.6    46     3.0   821.6    0.00 
 126   17:30   0.03   61.8    57    0.3     4     2.3   821.7    0.00 
 126   17:40   0.02   61.3    58    0.4    56     1.9   821.8    0.00 
 126   17:50   0.02   60.6    60    0.3   178     1.4   821.8    0.00 
 126   18:00   0.02   60.1    62    0.2   164     1.7   821.8    0.00 
 126   18:10   0.02   59.7    65    0.1   295     0.9   821.8    0.00 
 126   18:20   0.01   59.1    69    0.1    16     1.1   821.9    0.00 
 126   18:30   0.01   58.3    72    0.0     2     0.2   822.0    0.00 
 126   18:40   0.01   57.6    76    0.0   334     0.4   822.0    0.00 
 126   18:50   0.01   56.7    79    0.3   196     1.2   822.1    0.00 
 126   19:00   0.00   55.4    80    0.4   228     1.2   822.2    0.00 
 126   19:10   0.00   54.4    81    0.7   209     1.3   822.2    0.00 
 126   19:20   0.00   53.4    81    1.3   209     2.1   822.3    0.00 
 126   19:30   0.00   52.4    82    1.0   206     2.3   822.4    0.00 
 126   19:40   0.00   51.6    84    0.6   192     1.8   822.5    0.00 
 126   19:50   0.00   50.8    85    1.6   220     2.6   822.5    0.00 
 126   20:00   0.00   50.3    86    1.4   204     2.2   822.6    0.00 
 126   20:10   0.00   49.7    86    0.7   201     1.6   822.7    0.00 
 126   20:20   0.00   49.2    87    1.2   193     2.0   822.7    0.00 
 126   20:30   0.00   48.7    89    1.1   202     1.8   822.8    0.00 
 126   20:40   0.00   48.2    89    0.7   181     1.7   822.8    0.00 
 126   20:50   0.00   47.9    91    1.2   215     2.0   822.9    0.00 
 126   21:00   0.00   47.8    91    0.8   208     2.0   822.9    0.00 
 126   21:10   0.00   47.5    91    1.4   208     2.5   823.0    0.00 
 126   21:20   0.00   47.3    92    1.2   195     1.8   823.0    0.00 
 126   21:30   0.00   47.0    92    0.9   193     2.0   822.9    0.00 
 126   21:40   0.00   46.8    93    0.9   210     1.4   822.9    0.00 
 126   21:50   0.00   46.5    93    1.3   199     2.1   822.9    0.00 
 126   22:00   0.00   46.4    94    1.0   203     2.1   822.9    0.00 
 126   22:10   0.00   46.0    94    1.3   201     2.3   822.9    0.00 
 126   22:20   0.00   45.9    94    1.3   194     2.3   822.9    0.00 
 126   22:30   0.00   45.6    94    1.1   189     2.3   822.9    0.00 
 126   22:40   0.00   45.5    95    1.2   218     2.9   822.9    0.00 
 126   22:50   0.00   45.5    94    1.1   196     2.2   822.9    0.00 
 126   23:00   0.00   45.4    94    1.3   204     2.6   822.9    0.00 
 126   23:10   0.00   45.1    94    1.3   200     2.5   822.9    0.00 
 126   23:20   0.00   44.9    94    1.6   199     2.6   822.9    0.00 
 126   23:30   0.00   44.6    94    1.4   192     2.3   822.8    0.00 
 126   23:40   0.00   44.4    94    1.3   193     2.1   822.8    0.00 
 126   23:50   0.00   44.2    94    1.3   189     2.1   822.8    0.00 
 127    0:00   0.00   44.0    94    1.2   204     2.0   822.8    0.00 
 127    0:10   0.00   44.0    94    1.5   205     2.1   822.8    0.00 
 127    0:20   0.00   43.9    94    1.5   193     2.0   822.8    0.00 
 127    0:30   0.00   43.6    94    1.2   196     1.8   822.8    0.00 
 127    0:40   0.00   43.5    94    1.3   198     2.2   822.8    0.00 
 127    0:50   0.00   43.5    94    1.1   199     2.2   822.8    0.00 
 127    1:00   0.00   43.6    93    1.2   187     2.3   822.7    0.00 
 127    1:10   0.00   43.3    93    1.3   212     2.3   822.7    0.00 
 127    1:20   0.00   43.3    93    1.5   199     3.1   822.6    0.00 
 127    1:30   0.00   43.1    93    1.5   193     2.6   822.5    0.00 
 127    1:40   0.00   43.0    93    1.4   193     1.9   822.5    0.00 
 127    1:50   0.00   43.0    93    1.2   205     2.7   822.4    0.00 
 127    2:00   0.00   42.9    93    1.1   196     2.3   822.3    0.00 
 127    2:10   0.00   42.9    92    1.3   196     2.6   822.3    0.00 
 127    2:20   0.00   42.7    93    1.1   197     1.7   822.3    0.00 
 127    2:30   0.00   42.5    93    1.5   197     2.4   822.3    0.00 
 127    2:40   0.00   42.4    93    1.2   198     2.1   822.2    0.00 
 127    2:50   0.00   42.2    93    1.1   198     2.3   822.2    0.00 
 127    3:00   0.00   42.1    93    1.1   207     2.0   822.1    0.00 
 127    3:10   0.00   42.4    92    1.2   207     2.1   822.1    0.00 
 127    3:20   0.00   42.6    92    1.3   201     2.3   822.1    0.00 
 127    3:30   0.00   42.0    93    1.2   198     2.0   822.1    0.00 
 127    3:40   0.00   41.8    93    1.1   178     1.8   822.1    0.00 
 127    3:50   0.00   41.7    93    1.1   202     2.2   822.1    0.00 
 127    4:00   0.00   41.7    93    1.4   195     2.5   822.0    0.00 
 127    4:10   0.00   41.4    93    0.8   188     2.1   822.0    0.00 
 127    4:20   0.00   41.5    92    1.0   205     2.3   822.0    0.00 
 127    4:30   0.00   41.7    90    1.2   205     2.5   822.0    0.00 
 127    4:40   0.00   41.3    92    1.4   200     2.3   822.0    0.00 
 127    4:50   0.00   41.6    91    1.4   210     2.4   822.1    0.00 
 127    5:00   0.00   41.5    90    1.6   199     2.7   822.1    0.00 
 127    5:10   0.01   41.2    91    1.5   198     2.5   822.1    0.00 
 127    5:20   0.01   41.1    91    1.2   198     2.3   822.2    0.00 
 127    5:30   0.01   41.2    91    1.2   193     2.1   822.2    0.00 
 127    5:40   0.01   41.2    91    1.0   198     2.0   822.3    0.00 
 127    5:50   0.03   41.7    89    0.1   211     0.9   822.4    0.00 
 127    6:00   0.03   42.6    88    0.1   175     1.2   822.4    0.00 
 127    6:10   0.11   43.8    86    0.3   164     2.0   822.5    0.00 
 127    6:20   0.09   45.1    84    0.1    79     0.9   822.5    0.00 
 127    6:30   0.04   47.2    78    0.3    52     1.8   822.5    0.00 
 127    6:40   0.04   48.4    75    0.4    50     1.5   822.6    0.00 
 127    6:50   0.06   49.4    73    0.4    50     1.2   822.5    0.00 
 127    7:00   0.07   51.1    67    0.8    37     1.9   822.5    0.00 
 127    7:10   0.20   53.0    64    1.1    52     2.2   822.5    0.00 
 127    7:20   0.42   54.2    59    1.3    36     2.8   822.6    0.00 
 127    7:30   0.48   55.6    55    0.8    53     3.1   822.6    0.00 
 127    7:40   0.52   56.9    56    0.8    45     2.3   822.7    0.00 
 127    7:50   0.44   58.8    54    0.8    45     2.3   822.6    0.00 
 127    8:00   0.16   60.9    48    0.9    27     4.0   822.6    0.00 
 127    8:10   0.16   63.0    42    1.1    98     4.2   822.6    0.00 
 127    8:20   0.04   63.4    40    1.2   117     4.5   822.6    0.00 
 127    8:30   0.03   63.9    37    1.3   187     4.9   822.6    0.00 
 127    8:40   0.01   64.4    35    1.3   193     5.4   822.6    0.00 
 127    8:50   0.02   64.9    35    1.3   155     4.7   822.6    0.00 
 127    9:00   0.03   65.1    35    2.0   133     6.7   822.6    0.00 
 127    9:10   0.02   65.1    35    1.9   182     7.5   822.6    0.00 
 127    9:20   0.08   65.3    36    1.7   162     5.1   822.6    0.00 
 127    9:30   0.69   65.7    35    1.7   166     8.0   822.7    0.00 
 127    9:40   0.51   65.8    33    1.8   130     6.3   822.7    0.00 
 127    9:50   0.64   66.6    32    1.8   153     7.4   822.8    0.00 
 127   10:00   0.65   66.8    30    1.8   177     5.3   822.7    0.00 
 127   10:10   0.57   67.5    29    2.1   162     6.0   822.8    0.00 
 127   10:20   0.64   66.9    30    1.3   154     4.8   822.8    0.00 
 127   10:30   0.48   67.7    29    2.2   161     7.6   822.7    0.00 
 127   10:40   0.62   67.8    29    2.3   151    12.0   822.7    0.00 
 127   10:50   0.73   67.2    28    2.8   204     8.8   822.7    0.00 
 127   11:00   0.88   66.8    27    1.7   132     7.7   822.7    0.00 
 127   11:10   0.79   67.5    28    1.9   196     5.1   822.7    0.00 
 127   11:20   0.78   68.2    28    1.6   169     6.1   822.6    0.00 
 127   11:30   0.79   67.8    28    2.2   141     8.3   822.6    0.00 
 127   11:40   0.85   68.2    30    1.6   104     4.7   822.5    0.00 
 127   11:50   0.61   68.8    32    2.2    68     6.7   822.5    0.00 
 127   12:00   0.56   68.7    30    2.2   149     8.4   822.4    0.00 
 127   12:10   0.58   68.5    33    2.3    34     6.2   822.4    0.00 
 127   12:20   0.59   69.1    34    2.5    25     9.2   822.4    0.00 
 127   12:30   0.61   68.6    35    2.1   259     8.3   822.3    0.00 
 127   12:40   0.60   69.8    36    2.7    26     9.4   822.3    0.00 
 127   12:50   0.64   69.4    38    2.0    39     6.3   822.3    0.00 
 127   13:00   0.77   70.4    37    1.8    18     9.4   822.2    0.00 
 127   13:10   0.98   69.1    39    2.9    30     8.8   822.2    0.00 
 127   13:20   0.98   69.6    38    1.8    45     7.7   822.2    0.00 
 127   13:30   0.97   69.8    38    3.0    21    10.5   822.1    0.00 
 127   13:40   0.96   68.8    39    2.2    54     7.7   822.1    0.00 
 127   13:50   0.94   69.7    37    2.0   330    10.1   822.0    0.00 
 127   14:00   0.93   69.6    39    1.7    35     4.5   821.9    0.00 
 127   14:10   0.91   69.7    39    2.4    15    10.1   821.8    0.00 
 127   14:20   0.89   69.5    38    1.8    48     7.2   821.7    0.00 
 127   14:30   0.86   68.8    36    1.6    80     6.8   821.6    0.00 
 127   14:40   0.84   69.0    36    2.3    62     9.0   821.6    0.00 
 127   14:50   0.81   68.8    35    1.9    20     7.3   821.5    0.00 
 127   15:00   0.79   68.8    36    2.0    45     7.2   821.4    0.00 
 127   15:10   0.76   68.9    34    2.3    26    11.7   821.4    0.00 
 127   15:20   0.73   68.7    35    1.6    33     5.6   821.4    0.00 
 127   15:30   0.70   67.8    31    2.0   280     7.9   821.4    0.00 
 127   15:40   0.05   67.6    34    1.5   169     5.0   821.3    0.00 
 127   15:50   0.34   67.9    33    1.5    54     6.5   821.3    0.00 
 127   16:00   0.14   66.8    36    1.5     2     5.8   821.3    0.00 
 127   16:10   0.14   65.7    35    1.5   304     6.4   821.3    0.00 
 127   16:20   0.31   66.0    36    1.9    28     6.0   821.3    0.00 
 127   16:30   0.48   65.1    39    1.4    16     5.7   821.4    0.00 
 127   16:40   0.45   64.7    42    1.3    68     4.5   821.4    0.00 
 127   16:50   0.38   63.5    44    2.0    33     6.3   821.4    0.00 
 127   17:00   0.08   62.5    45    1.6   320     6.6   821.4    0.00 

Return to Chickering American River Reserve graphs page.


Western Regional Climate Center,wrcc@dri.edu